INFORMAÇÕES METEOROLÓGICAS
METAR FOR KCXP
ADDS - METARS form results

(0508 UTC 20 July 2018)
Data provider http://aviationweather.gov/adds/metars/
 
METAR text: KCXP 200455Z AUTO 10005KT 10SM CLR 28/05 A3009 RMK AO2
Conditions at: KCXP (CARSON CITY , NV, US) observed 0455 UTC 20 July 2018
Temperature: 28.0°C (82°F)
Dewpoint: 5.0°C (41°F) [RH = 23%]
Pressure (altimeter): 30.09 inches Hg (1019.0 mb)
Winds: from the E (100 degrees) at 6 MPH (5 knots; 2.6 m/s)
Visibility: 10 or more miles (16+ km)
Ceiling: at least 12,000 feet AGL
Clouds: sky clear below 12,000 feet AGL
Weather: automated observation with no human augmentation;
there may or may not be significant weather present at this time

METAR text: KCXP 200435Z AUTO 25003KT 10SM CLR 29/05 A3008 RMK AO2
Conditions at: KCXP (CARSON CITY , NV, US) observed 0435 UTC 20 July 2018
Temperature: 29.0°C (84°F)
Dewpoint: 5.0°C (41°F) [RH = 22%]
Pressure (altimeter): 30.08 inches Hg (1018.7 mb)
Winds: from the WSW (250 degrees) at 3 MPH (3 knots; 1.6 m/s)
Visibility: 10 or more miles (16+ km)
Ceiling: at least 12,000 feet AGL
Clouds: sky clear below 12,000 feet AGL
Weather: automated observation with no human augmentation;
there may or may not be significant weather present at this time

METAR text: KCXP 200415Z AUTO 16004KT 10SM CLR 29/05 A3008 RMK AO2
Conditions at: KCXP (CARSON CITY , NV, US) observed 0415 UTC 20 July 2018
Temperature: 29.0°C (84°F)
Dewpoint: 5.0°C (41°F) [RH = 22%]
Pressure (altimeter): 30.08 inches Hg (1018.7 mb)
Winds: from the SSE (160 degrees) at 5 MPH (4 knots; 2.1 m/s)
Visibility: 10 or more miles (16+ km)
Ceiling: at least 12,000 feet AGL
Clouds: sky clear below 12,000 feet AGL
Weather: automated observation with no human augmentation;
there may or may not be significant weather present at this time

Forecast for: KCXP (CARSON CITY , NV, US)
Text: KCXP 192320Z 2000/2024 27010G17KT P6SM FEW110 SCT200
Forecast period: 0000 to 0400 UTC 20 July 2018
Forecast type: FROM: standard forecast or significant change
Winds: from the W (270 degrees) at 12 MPH (10 knots; 5.2 m/s)
gusting to 20 MPH (17 knots; 8.8 m/s)
Visibility: 6 or more miles (10+ km)
Clouds: few clouds at 11000 feet AGL
scattered clouds at 20000 feet AGL
Weather: no significant weather forecast for this period
Text: FM200400 VRB04KT P6SM SCT110 BKN200
Forecast period: 0400 to 2200 UTC 20 July 2018
Forecast type: FROM: standard forecast or significant change
Winds: variable direction winds at 5 MPH (4 knots; 2.1 m/s)
Visibility: 6 or more miles (10+ km)
Ceiling: 20000 feet AGL
Clouds: scattered clouds at 11000 feet AGL
broken clouds at 20000 feet AGL
Weather: no significant weather forecast for this period
Text: FM202200 26010G18KT P6SM SCT080 SCT140
Forecast period: 2200 UTC 20 July 2018 to 0000 UTC 21 July 2018
Forecast type: FROM: standard forecast or significant change
Winds: from the W (260 degrees) at 12 MPH (10 knots; 5.2 m/s)
gusting to 21 MPH (18 knots; 9.4 m/s)
Visibility: 6 or more miles (10+ km)
Clouds: scattered clouds at 8000 feet AGL
scattered clouds at 14000 feet AGL
Weather: no significant weather forecast for this period

 MAPA DO AEROPORTO

 INFORMAÇÕES DA PISTA
Pista 09 Tamanho da pista 5906 ft Largura da pista 75 ft
Elevação da pista 4697 ft Ranhura da pista 0 ft Proa da pista 107
Pista 27 Tamanho da pista 5906 ft Largura da pista 75 ft
Elevação da pista 4686 ft Ranhura da pista 0 ft Proa da pista 287

 FREQUÊNCIAS DO AEROPORTO
Tipo AWOS Nome AWOS 3 Frequência 119.925 MHZ
Tipo UNIC Nome CTAF/UNICO Frequência 123 MHZ

 AUXÍLIOS DE NAVEGAÇÃO PRÓXIMOS AO AEROPORTO





Powered by Virtual Airlines Manager [v2.6.2]